sensor_id;sensor_type;location;lat;lon;timestamp;P1;durP1;ratioP1;P2;durP2;ratioP2
15655;SDS011;7928;43.614;1.456;2023-06-01T00:01:55;7.93;;;6.87;;
15655;SDS011;7928;43.614;1.456;2023-06-01T00:04:22;12.53;;;7.07;;
15655;SDS011;7928;43.614;1.456;2023-06-01T00:06:49;7.77;;;6.60;;
15655;SDS011;7928;43.614;1.456;2023-06-01T00:09:17;8.43;;;6.80;;
15655;SDS011;7928;43.614;1.456;2023-06-01T00:11:44;7.00;;;6.13;;
15655;SDS011;7928;43.614;1.456;2023-06-01T00:14:11;8.30;;;7.03;;
15655;SDS011;7928;43.614;1.456;2023-06-01T00:16:38;10.97;;;7.10;;
15655;SDS011;7928;43.614;1.456;2023-06-01T00:19:05;8.00;;;7.17;;
15655;SDS011;7928;43.614;1.456;2023-06-01T00:21:32;10.20;;;7.00;;
15655;SDS011;7928;43.614;1.456;2023-06-01T00:24:00;8.20;;;6.27;;
15655;SDS011;7928;43.614;1.456;2023-06-01T00:26:29;7.47;;;6.67;;
15655;SDS011;7928;43.614;1.456;2023-06-01T00:28:57;8.00;;;7.17;;
15655;SDS011;7928;43.614;1.456;2023-06-01T00:31:24;8.03;;;6.63;;
15655;SDS011;7928;43.614;1.456;2023-06-01T00:33:51;8.63;;;6.77;;
15655;SDS011;7928;43.614;1.456;2023-06-01T00:36:18;8.60;;;7.00;;
15655;SDS011;7928;43.614;1.456;2023-06-01T00:38:45;10.30;;;7.00;;
15655;SDS011;7928;43.614;1.456;2023-06-01T00:41:12;8.47;;;6.77;;
15655;SDS011;7928;43.614;1.456;2023-06-01T00:43:40;7.43;;;6.60;;
15655;SDS011;7928;43.614;1.456;2023-06-01T00:46:07;7.73;;;6.93;;
15655;SDS011;7928;43.614;1.456;2023-06-01T00:48:35;8.13;;;7.30;;
15655;SDS011;7928;43.614;1.456;2023-06-01T00:51:02;9.77;;;6.87;;
15655;SDS011;7928;43.614;1.456;2023-06-01T00:53:29;8.67;;;7.17;;
15655;SDS011;7928;43.614;1.456;2023-06-01T00:55:56;8.83;;;6.87;;
15655;SDS011;7928;43.614;1.456;2023-06-01T00:58:23;7.83;;;6.23;;
15655;SDS011;7928;43.614;1.456;2023-06-01T01:00:52;7.37;;;6.60;;
15655;SDS011;7928;43.614;1.456;2023-06-01T01:03:19;11.80;;;7.43;;
15655;SDS011;7928;43.614;1.456;2023-06-01T01:05:46;9.60;;;7.20;;
15655;SDS011;7928;43.614;1.456;2023-06-01T01:08:18;7.03;;;6.27;;
15655;SDS011;7928;43.614;1.456;2023-06-01T01:10:53;7.97;;;6.20;;
15655;SDS011;7928;43.614;1.456;2023-06-01T01:13:27;12.37;;;6.93;;
15655;SDS011;7928;43.614;1.456;2023-06-01T01:15:59;12.00;;;7.90;;
15655;SDS011;7928;43.614;1.456;2023-06-01T01:18:30;9.03;;;6.47;;
15655;SDS011;7928;43.614;1.456;2023-06-01T01:21:03;11.00;;;7.47;;
15655;SDS011;7928;43.614;1.456;2023-06-01T01:23:55;8.93;;;7.00;;
15655;SDS011;7928;43.614;1.456;2023-06-01T01:26:43;12.03;;;7.00;;
15655;SDS011;7928;43.614;1.456;2023-06-01T01:29:20;11.33;;;7.53;;
15655;SDS011;7928;43.614;1.456;2023-06-01T01:31:49;10.63;;;6.67;;
15655;SDS011;7928;43.614;1.456;2023-06-01T01:34:17;10.40;;;6.60;;
15655;SDS011;7928;43.614;1.456;2023-06-01T01:36:45;10.53;;;6.70;;
15655;SDS011;7928;43.614;1.456;2023-06-01T01:39:13;11.17;;;6.33;;
15655;SDS011;7928;43.614;1.456;2023-06-01T01:41:40;8.60;;;6.53;;
15655;SDS011;7928;43.614;1.456;2023-06-01T01:44:07;11.53;;;6.13;;
15655;SDS011;7928;43.614;1.456;2023-06-01T01:46:38;11.70;;;6.63;;
15655;SDS011;7928;43.614;1.456;2023-06-01T01:49:12;10.87;;;6.30;;
15655;SDS011;7928;43.614;1.456;2023-06-01T01:51:44;10.27;;;5.90;;
15655;SDS011;7928;43.614;1.456;2023-06-01T01:54:16;7.63;;;6.27;;
15655;SDS011;7928;43.614;1.456;2023-06-01T01:56:44;11.47;;;6.63;;
15655;SDS011;7928;43.614;1.456;2023-06-01T01:59:13;11.77;;;7.43;;
15655;SDS011;7928;43.614;1.456;2023-06-01T02:01:42;8.13;;;6.10;;
15655;SDS011;7928;43.614;1.456;2023-06-01T02:04:10;10.17;;;6.87;;
15655;SDS011;7928;43.614;1.456;2023-06-01T02:06:37;9.43;;;6.43;;
15655;SDS011;7928;43.614;1.456;2023-06-01T02:09:04;8.77;;;6.37;;
15655;SDS011;7928;43.614;1.456;2023-06-01T02:11:32;11.40;;;6.70;;
15655;SDS011;7928;43.614;1.456;2023-06-01T02:13:59;8.63;;;6.63;;
15655;SDS011;7928;43.614;1.456;2023-06-01T02:16:26;13.07;;;6.70;;
15655;SDS011;7928;43.614;1.456;2023-06-01T02:18:55;10.93;;;6.43;;
15655;SDS011;7928;43.614;1.456;2023-06-01T02:21:24;9.97;;;6.03;;
15655;SDS011;7928;43.614;1.456;2023-06-01T02:23:51;11.67;;;6.57;;
15655;SDS011;7928;43.614;1.456;2023-06-01T02:26:18;9.97;;;7.03;;
15655;SDS011;7928;43.614;1.456;2023-06-01T02:28:45;14.27;;;7.40;;
15655;SDS011;7928;43.614;1.456;2023-06-01T02:31:13;11.60;;;7.10;;
15655;SDS011;7928;43.614;1.456;2023-06-01T02:33:40;9.23;;;6.40;;
15655;SDS011;7928;43.614;1.456;2023-06-01T02:36:08;9.70;;;6.40;;
15655;SDS011;7928;43.614;1.456;2023-06-01T02:38:35;8.07;;;6.07;;
15655;SDS011;7928;43.614;1.456;2023-06-01T02:41:02;10.90;;;6.93;;
15655;SDS011;7928;43.614;1.456;2023-06-01T02:43:29;8.83;;;6.37;;
15655;SDS011;7928;43.614;1.456;2023-06-01T02:46:00;8.00;;;6.53;;
15655;SDS011;7928;43.614;1.456;2023-06-01T02:48:27;8.60;;;6.50;;
15655;SDS011;7928;43.614;1.456;2023-06-01T02:50:54;11.00;;;6.63;;
15655;SDS011;7928;43.614;1.456;2023-06-01T02:53:22;9.33;;;6.13;;
15655;SDS011;7928;43.614;1.456;2023-06-01T02:55:52;11.50;;;7.17;;
15655;SDS011;7928;43.614;1.456;2023-06-01T02:58:19;8.33;;;6.50;;
15655;SDS011;7928;43.614;1.456;2023-06-01T03:00:46;10.30;;;6.10;;
15655;SDS011;7928;43.614;1.456;2023-06-01T03:03:13;14.77;;;7.03;;
15655;SDS011;7928;43.614;1.456;2023-06-01T03:05:40;11.87;;;7.63;;
15655;SDS011;7928;43.614;1.456;2023-06-01T03:08:08;10.57;;;7.33;;
15655;SDS011;7928;43.614;1.456;2023-06-01T03:10:36;8.20;;;6.73;;
15655;SDS011;7928;43.614;1.456;2023-06-01T03:13:03;10.80;;;6.70;;
15655;SDS011;7928;43.614;1.456;2023-06-01T03:15:30;9.00;;;6.77;;
15655;SDS011;7928;43.614;1.456;2023-06-01T03:17:58;8.67;;;6.00;;
15655;SDS011;7928;43.614;1.456;2023-06-01T03:20:26;7.00;;;6.30;;
15655;SDS011;7928;43.614;1.456;2023-06-01T03:22:53;8.00;;;6.30;;
15655;SDS011;7928;43.614;1.456;2023-06-01T03:25:20;9.43;;;6.10;;
15655;SDS011;7928;43.614;1.456;2023-06-01T03:27:49;9.60;;;5.97;;
15655;SDS011;7928;43.614;1.456;2023-06-01T03:30:16;6.67;;;5.80;;
15655;SDS011;7928;43.614;1.456;2023-06-01T03:32:43;10.00;;;6.23;;
15655;SDS011;7928;43.614;1.456;2023-06-01T03:35:11;9.17;;;6.43;;
15655;SDS011;7928;43.614;1.456;2023-06-01T03:37:40;9.37;;;5.53;;
15655;SDS011;7928;43.614;1.456;2023-06-01T03:40:08;8.93;;;5.93;;
15655;SDS011;7928;43.614;1.456;2023-06-01T03:42:36;7.77;;;5.70;;
15655;SDS011;7928;43.614;1.456;2023-06-01T03:45:05;7.00;;;5.73;;
15655;SDS011;7928;43.614;1.456;2023-06-01T03:47:33;6.67;;;5.23;;
15655;SDS011;7928;43.614;1.456;2023-06-01T03:50:00;5.97;;;5.20;;
15655;SDS011;7928;43.614;1.456;2023-06-01T03:52:28;6.30;;;5.50;;
15655;SDS011;7928;43.614;1.456;2023-06-01T03:54:56;6.53;;;5.83;;
15655;SDS011;7928;43.614;1.456;2023-06-01T03:57:24;9.73;;;6.57;;
15655;SDS011;7928;43.614;1.456;2023-06-01T03:59:51;6.07;;;5.47;;
15655;SDS011;7928;43.614;1.456;2023-06-01T04:02:19;8.33;;;6.10;;
15655;SDS011;7928;43.614;1.456;2023-06-01T04:04:47;8.03;;;5.47;;
15655;SDS011;7928;43.614;1.456;2023-06-01T04:07:14;5.87;;;5.27;;
15655;SDS011;7928;43.614;1.456;2023-06-01T04:09:44;12.03;;;6.00;;
15655;SDS011;7928;43.614;1.456;2023-06-01T04:12:12;7.60;;;5.73;;
15655;SDS011;7928;43.614;1.456;2023-06-01T04:14:40;5.83;;;5.10;;
15655;SDS011;7928;43.614;1.456;2023-06-01T04:17:07;6.63;;;5.53;;
15655;SDS011;7928;43.614;1.456;2023-06-01T04:19:38;8.50;;;6.03;;
15655;SDS011;7928;43.614;1.456;2023-06-01T04:22:05;8.27;;;6.00;;
15655;SDS011;7928;43.614;1.456;2023-06-01T04:24:32;8.30;;;6.07;;
15655;SDS011;7928;43.614;1.456;2023-06-01T04:26:59;7.90;;;6.30;;
15655;SDS011;7928;43.614;1.456;2023-06-01T04:29:27;8.90;;;6.17;;
15655;SDS011;7928;43.614;1.456;2023-06-01T04:31:54;6.33;;;5.37;;
15655;SDS011;7928;43.614;1.456;2023-06-01T04:34:21;8.73;;;5.77;;
15655;SDS011;7928;43.614;1.456;2023-06-01T04:36:51;8.97;;;5.60;;
15655;SDS011;7928;43.614;1.456;2023-06-01T04:39:18;7.47;;;5.60;;
15655;SDS011;7928;43.614;1.456;2023-06-01T04:41:45;8.53;;;6.13;;
15655;SDS011;7928;43.614;1.456;2023-06-01T04:44:13;7.23;;;5.90;;
15655;SDS011;7928;43.614;1.456;2023-06-01T04:46:41;8.73;;;5.50;;
15655;SDS011;7928;43.614;1.456;2023-06-01T04:49:09;6.50;;;5.80;;
15655;SDS011;7928;43.614;1.456;2023-06-01T04:51:37;8.43;;;6.23;;
15655;SDS011;7928;43.614;1.456;2023-06-01T04:54:06;7.47;;;5.20;;
15655;SDS011;7928;43.614;1.456;2023-06-01T04:56:34;9.07;;;6.20;;
15655;SDS011;7928;43.614;1.456;2023-06-01T04:59:01;7.20;;;6.00;;
15655;SDS011;7928;43.614;1.456;2023-06-01T05:01:30;9.97;;;6.10;;
15655;SDS011;7928;43.614;1.456;2023-06-01T05:03:57;8.03;;;5.90;;
15655;SDS011;7928;43.614;1.456;2023-06-01T05:06:25;9.67;;;7.07;;
15655;SDS011;7928;43.614;1.456;2023-06-01T05:08:52;8.87;;;6.27;;
15655;SDS011;7928;43.614;1.456;2023-06-01T05:11:20;11.97;;;7.47;;
15655;SDS011;7928;43.614;1.456;2023-06-01T05:13:48;8.03;;;6.60;;
15655;SDS011;7928;43.614;1.456;2023-06-01T05:16:16;8.60;;;6.70;;
15655;SDS011;7928;43.614;1.456;2023-06-01T05:18:43;7.40;;;6.53;;
15655;SDS011;7928;43.614;1.456;2023-06-01T05:21:10;7.90;;;6.03;;
15655;SDS011;7928;43.614;1.456;2023-06-01T05:23:37;8.63;;;6.53;;
15655;SDS011;7928;43.614;1.456;2023-06-01T05:26:04;10.57;;;7.17;;
15655;SDS011;7928;43.614;1.456;2023-06-01T05:28:33;10.87;;;7.03;;
15655;SDS011;7928;43.614;1.456;2023-06-01T05:31:00;7.77;;;5.93;;
15655;SDS011;7928;43.614;1.456;2023-06-01T05:33:28;7.83;;;6.60;;
15655;SDS011;7928;43.614;1.456;2023-06-01T05:35:55;8.63;;;6.60;;
15655;SDS011;7928;43.614;1.456;2023-06-01T05:38:22;11.13;;;7.27;;
15655;SDS011;7928;43.614;1.456;2023-06-01T05:40:49;8.77;;;6.87;;
15655;SDS011;7928;43.614;1.456;2023-06-01T05:43:16;8.53;;;7.17;;
15655;SDS011;7928;43.614;1.456;2023-06-01T05:45:44;9.47;;;7.07;;
15655;SDS011;7928;43.614;1.456;2023-06-01T05:48:13;7.00;;;6.30;;
15655;SDS011;7928;43.614;1.456;2023-06-01T05:50:40;8.67;;;6.37;;
15655;SDS011;7928;43.614;1.456;2023-06-01T05:53:08;8.40;;;6.87;;
15655;SDS011;7928;43.614;1.456;2023-06-01T05:55:35;9.93;;;6.60;;
15655;SDS011;7928;43.614;1.456;2023-06-01T05:58:02;7.83;;;6.00;;
15655;SDS011;7928;43.614;1.456;2023-06-01T06:00:29;7.87;;;5.80;;
15655;SDS011;7928;43.614;1.456;2023-06-01T06:02:58;7.87;;;6.00;;
15655;SDS011;7928;43.614;1.456;2023-06-01T06:05:25;8.57;;;6.13;;
15655;SDS011;7928;43.614;1.456;2023-06-01T06:07:52;8.47;;;6.33;;
15655;SDS011;7928;43.614;1.456;2023-06-01T06:10:19;10.63;;;7.03;;
15655;SDS011;7928;43.614;1.456;2023-06-01T06:12:46;11.03;;;6.23;;
15655;SDS011;7928;43.614;1.456;2023-06-01T06:15:13;8.40;;;7.23;;
15655;SDS011;7928;43.614;1.456;2023-06-01T06:17:40;9.77;;;6.40;;
15655;SDS011;7928;43.614;1.456;2023-06-01T06:20:09;10.27;;;6.70;;
15655;SDS011;7928;43.614;1.456;2023-06-01T06:22:37;8.57;;;6.57;;
15655;SDS011;7928;43.614;1.456;2023-06-01T06:25:04;8.53;;;5.77;;
15655;SDS011;7928;43.614;1.456;2023-06-01T06:27:32;11.23;;;7.93;;
15655;SDS011;7928;43.614;1.456;2023-06-01T06:29:59;13.17;;;7.23;;
15655;SDS011;7928;43.614;1.456;2023-06-01T06:32:26;7.37;;;6.67;;
15655;SDS011;7928;43.614;1.456;2023-06-01T06:34:53;7.23;;;6.30;;
15655;SDS011;7928;43.614;1.456;2023-06-01T06:37:21;7.17;;;6.47;;
15655;SDS011;7928;43.614;1.456;2023-06-01T06:39:48;7.47;;;6.50;;
15655;SDS011;7928;43.614;1.456;2023-06-01T06:42:15;8.47;;;5.93;;
15655;SDS011;7928;43.614;1.456;2023-06-01T06:44:42;8.93;;;6.17;;
15655;SDS011;7928;43.614;1.456;2023-06-01T06:47:09;7.87;;;5.73;;
15655;SDS011;7928;43.614;1.456;2023-06-01T06:49:39;13.27;;;5.80;;
15655;SDS011;7928;43.614;1.456;2023-06-01T06:52:08;16.13;;;10.83;;
15655;SDS011;7928;43.614;1.456;2023-06-01T06:54:36;7.50;;;5.63;;
15655;SDS011;7928;43.614;1.456;2023-06-01T06:57:05;8.53;;;6.13;;
15655;SDS011;7928;43.614;1.456;2023-06-01T06:59:33;10.13;;;6.20;;
15655;SDS011;7928;43.614;1.456;2023-06-01T07:02:00;8.27;;;5.93;;
15655;SDS011;7928;43.614;1.456;2023-06-01T07:04:27;8.30;;;5.50;;
15655;SDS011;7928;43.614;1.456;2023-06-01T07:06:54;9.73;;;6.43;;
15655;SDS011;7928;43.614;1.456;2023-06-01T07:09:22;9.37;;;6.63;;
15655;SDS011;7928;43.614;1.456;2023-06-01T07:11:50;9.27;;;6.30;;
15655;SDS011;7928;43.614;1.456;2023-06-01T07:14:17;7.00;;;6.30;;
15655;SDS011;7928;43.614;1.456;2023-06-01T07:16:44;15.00;;;6.90;;
15655;SDS011;7928;43.614;1.456;2023-06-01T07:19:11;16.20;;;7.10;;
15655;SDS011;7928;43.614;1.456;2023-06-01T07:21:38;13.30;;;6.43;;
15655;SDS011;7928;43.614;1.456;2023-06-01T07:24:06;9.27;;;6.40;;
15655;SDS011;7928;43.614;1.456;2023-06-01T07:26:33;12.10;;;6.77;;
15655;SDS011;7928;43.614;1.456;2023-06-01T07:29:02;9.37;;;6.13;;
15655;SDS011;7928;43.614;1.456;2023-06-01T07:31:29;10.90;;;6.43;;
15655;SDS011;7928;43.614;1.456;2023-06-01T07:33:58;8.30;;;6.23;;
15655;SDS011;7928;43.614;1.456;2023-06-01T07:36:25;12.50;;;6.27;;
15655;SDS011;7928;43.614;1.456;2023-06-01T07:38:52;8.63;;;6.33;;
15655;SDS011;7928;43.614;1.456;2023-06-01T07:41:20;11.40;;;6.53;;
15655;SDS011;7928;43.614;1.456;2023-06-01T07:43:47;7.07;;;6.27;;
15655;SDS011;7928;43.614;1.456;2023-06-01T07:46:15;10.53;;;5.90;;
15655;SDS011;7928;43.614;1.456;2023-06-01T07:48:42;10.03;;;6.30;;
15655;SDS011;7928;43.614;1.456;2023-06-01T07:51:09;9.87;;;5.77;;
15655;SDS011;7928;43.614;1.456;2023-06-01T07:53:36;7.00;;;6.30;;
15655;SDS011;7928;43.614;1.456;2023-06-01T07:56:06;10.13;;;6.57;;
15655;SDS011;7928;43.614;1.456;2023-06-01T07:58:33;11.80;;;5.47;;
15655;SDS011;7928;43.614;1.456;2023-06-01T08:00:59;9.70;;;6.13;;
15655;SDS011;7928;43.614;1.456;2023-06-01T08:03:29;6.53;;;5.57;;
15655;SDS011;7928;43.614;1.456;2023-06-01T08:05:58;7.97;;;6.00;;
15655;SDS011;7928;43.614;1.456;2023-06-01T08:08:30;12.03;;;7.47;;
15655;SDS011;7928;43.614;1.456;2023-06-01T08:10:57;7.87;;;5.80;;
15655;SDS011;7928;43.614;1.456;2023-06-01T08:13:24;9.10;;;5.73;;
15655;SDS011;7928;43.614;1.456;2023-06-01T08:15:51;8.97;;;5.77;;
15655;SDS011;7928;43.614;1.456;2023-06-01T08:18:18;10.23;;;6.80;;
15655;SDS011;7928;43.614;1.456;2023-06-01T08:20:47;12.13;;;7.80;;
15655;SDS011;7928;43.614;1.456;2023-06-01T08:23:15;7.77;;;5.97;;
15655;SDS011;7928;43.614;1.456;2023-06-01T08:25:42;9.70;;;6.57;;
15655;SDS011;7928;43.614;1.456;2023-06-01T08:28:11;7.90;;;6.13;;
15655;SDS011;7928;43.614;1.456;2023-06-01T08:30:38;9.60;;;6.13;;
15655;SDS011;7928;43.614;1.456;2023-06-01T08:33:05;11.77;;;6.63;;
15655;SDS011;7928;43.614;1.456;2023-06-01T08:35:32;9.87;;;6.10;;
15655;SDS011;7928;43.614;1.456;2023-06-01T08:38:01;10.23;;;7.20;;
15655;SDS011;7928;43.614;1.456;2023-06-01T08:40:28;7.50;;;5.70;;
15655;SDS011;7928;43.614;1.456;2023-06-01T08:42:57;9.40;;;6.00;;
15655;SDS011;7928;43.614;1.456;2023-06-01T08:45:31;7.57;;;5.60;;
15655;SDS011;7928;43.614;1.456;2023-06-01T08:47:58;9.07;;;6.53;;
15655;SDS011;7928;43.614;1.456;2023-06-01T08:50:27;8.93;;;6.10;;
15655;SDS011;7928;43.614;1.456;2023-06-01T08:52:55;9.03;;;6.00;;
15655;SDS011;7928;43.614;1.456;2023-06-01T08:55:26;10.10;;;5.33;;
15655;SDS011;7928;43.614;1.456;2023-06-01T08:57:53;8.13;;;5.50;;
15655;SDS011;7928;43.614;1.456;2023-06-01T09:00:21;7.43;;;5.10;;
15655;SDS011;7928;43.614;1.456;2023-06-01T09:02:49;9.57;;;5.10;;
15655;SDS011;7928;43.614;1.456;2023-06-01T09:05:16;8.40;;;6.17;;
15655;SDS011;7928;43.614;1.456;2023-06-01T09:07:43;8.00;;;5.40;;
15655;SDS011;7928;43.614;1.456;2023-06-01T09:10:11;7.63;;;5.37;;
15655;SDS011;7928;43.614;1.456;2023-06-01T09:12:40;10.33;;;4.80;;
15655;SDS011;7928;43.614;1.456;2023-06-01T09:15:18;7.13;;;5.87;;
15655;SDS011;7928;43.614;1.456;2023-06-01T09:17:46;11.20;;;5.93;;
15655;SDS011;7928;43.614;1.456;2023-06-01T09:20:16;8.97;;;5.53;;
15655;SDS011;7928;43.614;1.456;2023-06-01T09:22:49;9.20;;;5.37;;
15655;SDS011;7928;43.614;1.456;2023-06-01T09:25:16;8.73;;;5.53;;
15655;SDS011;7928;43.614;1.456;2023-06-01T09:27:51;5.97;;;5.00;;
15655;SDS011;7928;43.614;1.456;2023-06-01T09:30:20;6.77;;;5.20;;
15655;SDS011;7928;43.614;1.456;2023-06-01T09:32:48;7.63;;;5.20;;
15655;SDS011;7928;43.614;1.456;2023-06-01T09:35:24;8.63;;;4.80;;
15655;SDS011;7928;43.614;1.456;2023-06-01T09:38:03;8.53;;;4.60;;
15655;SDS011;7928;43.614;1.456;2023-06-01T09:40:31;10.40;;;4.80;;
15655;SDS011;7928;43.614;1.456;2023-06-01T09:43:00;8.10;;;5.37;;
15655;SDS011;7928;43.614;1.456;2023-06-01T09:45:30;6.60;;;4.63;;
15655;SDS011;7928;43.614;1.456;2023-06-01T09:48:15;5.73;;;4.60;;
15655;SDS011;7928;43.614;1.456;2023-06-01T09:50:43;6.00;;;4.90;;
15655;SDS011;7928;43.614;1.456;2023-06-01T09:53:10;7.67;;;5.00;;
15655;SDS011;7928;43.614;1.456;2023-06-01T09:55:43;7.10;;;4.33;;
15655;SDS011;7928;43.614;1.456;2023-06-01T09:58:25;4.83;;;4.13;;
15655;SDS011;7928;43.614;1.456;2023-06-01T10:00:52;8.18;;;4.70;;
15655;SDS011;7928;43.614;1.456;2023-06-01T10:03:20;9.27;;;4.50;;
15655;SDS011;7928;43.614;1.456;2023-06-01T10:05:49;4.63;;;4.23;;
15655;SDS011;7928;43.614;1.456;2023-06-01T10:08:17;5.30;;;4.80;;
15655;SDS011;7928;43.614;1.456;2023-06-01T10:10:45;5.18;;;4.13;;
15655;SDS011;7928;43.614;1.456;2023-06-01T10:13:13;4.87;;;4.33;;
15655;SDS011;7928;43.614;1.456;2023-06-01T10:15:42;5.73;;;4.43;;
15655;SDS011;7928;43.614;1.456;2023-06-01T10:18:09;7.43;;;4.63;;
15655;SDS011;7928;43.614;1.456;2023-06-01T10:20:36;5.18;;;4.68;;
15655;SDS011;7928;43.614;1.456;2023-06-01T10:23:05;7.60;;;4.70;;
15655;SDS011;7928;43.614;1.456;2023-06-01T10:25:33;4.70;;;4.27;;
15655;SDS011;7928;43.614;1.456;2023-06-01T10:28:05;4.80;;;4.40;;
15655;SDS011;7928;43.614;1.456;2023-06-01T10:30:33;7.25;;;4.53;;
15655;SDS011;7928;43.614;1.456;2023-06-01T10:33:02;6.38;;;4.43;;
15655;SDS011;7928;43.614;1.456;2023-06-01T10:38:27;5.53;;;4.45;;
15655;SDS011;7928;43.614;1.456;2023-06-01T10:43:55;6.38;;;4.38;;
15655;SDS011;7928;43.614;1.456;2023-06-01T10:46:35;7.07;;;5.40;;
15655;SDS011;7928;43.614;1.456;2023-06-01T10:49:06;6.53;;;4.53;;
15655;SDS011;7928;43.614;1.456;2023-06-01T10:51:34;5.32;;;4.82;;
15655;SDS011;7928;43.614;1.456;2023-06-01T11:00:10;6.10;;;4.20;;
15655;SDS011;7928;43.614;1.456;2023-06-01T11:02:45;4.75;;;4.05;;
15655;SDS011;7928;43.614;1.456;2023-06-01T11:05:38;4.88;;;4.38;;
15655;SDS011;7928;43.614;1.456;2023-06-01T11:08:08;6.03;;;4.70;;
15655;SDS011;7928;43.614;1.456;2023-06-01T11:10:53;5.00;;;4.50;;
15655;SDS011;7928;43.614;1.456;2023-06-01T11:13:23;5.60;;;4.97;;
15655;SDS011;7928;43.614;1.456;2023-06-01T11:18:55;6.68;;;5.07;;
15655;SDS011;7928;43.614;1.456;2023-06-01T11:21:28;5.60;;;4.53;;
15655;SDS011;7928;43.614;1.456;2023-06-01T11:23:56;5.47;;;4.88;;
15655;SDS011;7928;43.614;1.456;2023-06-01T11:26:28;5.45;;;4.68;;
15655;SDS011;7928;43.614;1.456;2023-06-01T11:29:03;11.07;;;5.07;;
15655;SDS011;7928;43.614;1.456;2023-06-01T11:31:34;4.93;;;4.43;;
15655;SDS011;7928;43.614;1.456;2023-06-01T11:34:02;6.28;;;4.63;;
15655;SDS011;7928;43.614;1.456;2023-06-01T11:36:31;6.30;;;4.63;;
15655;SDS011;7928;43.614;1.456;2023-06-01T11:39:03;6.32;;;4.30;;
15655;SDS011;7928;43.614;1.456;2023-06-01T11:41:33;6.43;;;4.63;;
15655;SDS011;7928;43.614;1.456;2023-06-01T11:44:00;5.90;;;4.85;;
15655;SDS011;7928;43.614;1.456;2023-06-01T11:46:27;5.30;;;4.57;;
15655;SDS011;7928;43.614;1.456;2023-06-01T11:48:58;4.97;;;4.47;;
15655;SDS011;7928;43.614;1.456;2023-06-01T11:51:27;6.03;;;4.68;;
15655;SDS011;7928;43.614;1.456;2023-06-01T11:53:57;5.70;;;4.95;;
15655;SDS011;7928;43.614;1.456;2023-06-01T11:56:27;5.38;;;4.88;;
15655;SDS011;7928;43.614;1.456;2023-06-01T11:58:58;6.30;;;4.95;;
15655;SDS011;7928;43.614;1.456;2023-06-01T12:01:26;6.03;;;4.65;;
15655;SDS011;7928;43.614;1.456;2023-06-01T12:03:54;4.75;;;4.25;;
15655;SDS011;7928;43.614;1.456;2023-06-01T12:06:22;5.78;;;4.60;;
15655;SDS011;7928;43.614;1.456;2023-06-01T12:08:51;4.80;;;4.40;;
15655;SDS011;7928;43.614;1.456;2023-06-01T12:11:22;7.05;;;4.80;;
15655;SDS011;7928;43.614;1.456;2023-06-01T12:13:52;6.30;;;4.50;;
15655;SDS011;7928;43.614;1.456;2023-06-01T12:16:20;7.82;;;4.95;;
15655;SDS011;7928;43.614;1.456;2023-06-01T12:18:47;4.88;;;4.47;;
15655;SDS011;7928;43.614;1.456;2023-06-01T12:21:14;8.23;;;4.82;;
15655;SDS011;7928;43.614;1.456;2023-06-01T12:23:42;6.70;;;4.70;;
15655;SDS011;7928;43.614;1.456;2023-06-01T12:26:14;5.65;;;4.75;;
15655;SDS011;7928;43.614;1.456;2023-06-01T12:28:50;6.93;;;5.10;;
15655;SDS011;7928;43.614;1.456;2023-06-01T12:31:20;5.93;;;4.70;;
15655;SDS011;7928;43.614;1.456;2023-06-01T12:33:48;7.30;;;5.10;;
15655;SDS011;7928;43.614;1.456;2023-06-01T12:39:03;5.53;;;4.63;;
15655;SDS011;7928;43.614;1.456;2023-06-01T12:41:30;5.90;;;4.68;;
15655;SDS011;7928;43.614;1.456;2023-06-01T12:43:59;5.07;;;4.63;;
15655;SDS011;7928;43.614;1.456;2023-06-01T12:46:26;5.25;;;4.85;;
15655;SDS011;7928;43.614;1.456;2023-06-01T12:49:10;6.85;;;5.18;;
15655;SDS011;7928;43.614;1.456;2023-06-01T12:51:37;5.53;;;4.53;;
15655;SDS011;7928;43.614;1.456;2023-06-01T12:54:04;6.68;;;4.47;;
15655;SDS011;7928;43.614;1.456;2023-06-01T12:56:32;6.30;;;4.50;;
15655;SDS011;7928;43.614;1.456;2023-06-01T12:59:00;6.07;;;4.95;;
15655;SDS011;7928;43.614;1.456;2023-06-01T13:01:27;5.88;;;5.10;;
15655;SDS011;7928;43.614;1.456;2023-06-01T13:03:54;4.95;;;4.45;;
15655;SDS011;7928;43.614;1.456;2023-06-01T13:06:22;5.47;;;4.97;;
15655;SDS011;7928;43.614;1.456;2023-06-01T13:08:50;8.40;;;4.90;;
15655;SDS011;7928;43.614;1.456;2023-06-01T13:11:17;5.85;;;4.57;;
15655;SDS011;7928;43.614;1.456;2023-06-01T13:13:44;6.75;;;4.80;;
15655;SDS011;7928;43.614;1.456;2023-06-01T13:16:13;4.85;;;4.35;;
15655;SDS011;7928;43.614;1.456;2023-06-01T13:18:40;5.55;;;4.72;;
15655;SDS011;7928;43.614;1.456;2023-06-01T13:21:08;5.13;;;4.38;;
15655;SDS011;7928;43.614;1.456;2023-06-01T13:23:35;6.85;;;4.63;;
15655;SDS011;7928;43.614;1.456;2023-06-01T13:26:02;9.18;;;5.13;;
15655;SDS011;7928;43.614;1.456;2023-06-01T13:28:29;7.60;;;4.75;;
15655;SDS011;7928;43.614;1.456;2023-06-01T13:30:56;7.38;;;5.07;;
15655;SDS011;7928;43.614;1.456;2023-06-01T13:33:25;7.18;;;4.63;;
15655;SDS011;7928;43.614;1.456;2023-06-01T13:35:52;8.70;;;4.47;;
15655;SDS011;7928;43.614;1.456;2023-06-01T13:38:19;7.30;;;5.30;;
15655;SDS011;7928;43.614;1.456;2023-06-01T13:40:46;12.20;;;4.90;;
15655;SDS011;7928;43.614;1.456;2023-06-01T13:43:13;4.68;;;3.90;;
15655;SDS011;7928;43.614;1.456;2023-06-01T13:45:40;6.00;;;4.70;;
15655;SDS011;7928;43.614;1.456;2023-06-01T13:48:07;4.53;;;4.07;;
15655;SDS011;7928;43.614;1.456;2023-06-01T13:50:35;5.95;;;4.43;;
15655;SDS011;7928;43.614;1.456;2023-06-01T13:53:02;5.80;;;4.53;;
15655;SDS011;7928;43.614;1.456;2023-06-01T13:55:31;11.10;;;5.07;;
15655;SDS011;7928;43.614;1.456;2023-06-01T13:57:58;5.43;;;4.85;;
15655;SDS011;7928;43.614;1.456;2023-06-01T14:00:25;5.90;;;4.53;;
15655;SDS011;7928;43.614;1.456;2023-06-01T14:02:52;5.47;;;4.55;;
15655;SDS011;7928;43.614;1.456;2023-06-01T14:05:20;5.50;;;4.45;;
15655;SDS011;7928;43.614;1.456;2023-06-01T14:07:48;4.90;;;4.45;;
15655;SDS011;7928;43.614;1.456;2023-06-01T14:10:15;4.85;;;4.38;;
15655;SDS011;7928;43.614;1.456;2023-06-01T14:12:42;5.78;;;4.88;;
15655;SDS011;7928;43.614;1.456;2023-06-01T14:15:10;5.20;;;4.70;;
15655;SDS011;7928;43.614;1.456;2023-06-01T14:17:37;6.18;;;4.32;;
15655;SDS011;7928;43.614;1.456;2023-06-01T14:20:04;5.22;;;4.70;;
15655;SDS011;7928;43.614;1.456;2023-06-01T14:22:32;5.10;;;4.60;;
15655;SDS011;7928;43.614;1.456;2023-06-01T14:25:00;5.40;;;4.50;;
15655;SDS011;7928;43.614;1.456;2023-06-01T14:27:28;6.60;;;4.28;;
15655;SDS011;7928;43.614;1.456;2023-06-01T14:29:55;4.80;;;4.25;;
15655;SDS011;7928;43.614;1.456;2023-06-01T14:32:21;5.22;;;4.65;;
15655;SDS011;7928;43.614;1.456;2023-06-01T14:34:48;6.03;;;4.70;;
15655;SDS011;7928;43.614;1.456;2023-06-01T14:37:15;6.78;;;4.30;;
15655;SDS011;7928;43.614;1.456;2023-06-01T14:39:42;4.43;;;4.03;;
15655;SDS011;7928;43.614;1.456;2023-06-01T14:42:12;4.85;;;4.45;;
15655;SDS011;7928;43.614;1.456;2023-06-01T14:44:39;4.90;;;4.40;;
15655;SDS011;7928;43.614;1.456;2023-06-01T14:47:06;4.70;;;4.30;;
15655;SDS011;7928;43.614;1.456;2023-06-01T14:49:33;4.38;;;3.97;;
15655;SDS011;7928;43.614;1.456;2023-06-01T14:52:00;22.70;;;5.82;;
15655;SDS011;7928;43.614;1.456;2023-06-01T14:54:27;4.65;;;4.25;;
15655;SDS011;7928;43.614;1.456;2023-06-01T14:56:54;5.65;;;4.80;;
15655;SDS011;7928;43.614;1.456;2023-06-01T14:59:23;4.88;;;4.35;;
15655;SDS011;7928;43.614;1.456;2023-06-01T15:01:50;4.53;;;4.05;;
15655;SDS011;7928;43.614;1.456;2023-06-01T15:04:17;5.15;;;4.65;;
15655;SDS011;7928;43.614;1.456;2023-06-01T15:06:44;5.00;;;4.22;;
15655;SDS011;7928;43.614;1.456;2023-06-01T15:09:11;6.45;;;4.68;;
15655;SDS011;7928;43.614;1.456;2023-06-01T15:11:38;4.80;;;4.28;;
15655;SDS011;7928;43.614;1.456;2023-06-01T15:14:05;5.20;;;4.47;;
15655;SDS011;7928;43.614;1.456;2023-06-01T15:16:33;7.05;;;3.80;;
15655;SDS011;7928;43.614;1.456;2023-06-01T15:19:00;9.23;;;4.88;;
15655;SDS011;7928;43.614;1.456;2023-06-01T15:21:27;6.22;;;4.63;;
15655;SDS011;7928;43.614;1.456;2023-06-01T15:23:54;5.07;;;4.13;;